createdAt,value
2019-01-18T00:00:45.164Z,5.53
2019-01-18T00:05:48.602Z,5.33
2019-01-18T00:10:52.094Z,4.63
2019-01-18T00:15:55.507Z,4.17
2019-01-18T00:20:58.913Z,3.90
2019-01-18T00:26:02.417Z,5.03
2019-01-18T00:31:05.977Z,4.83
2019-01-18T00:36:09.407Z,4.03
2019-01-18T00:41:12.845Z,4.03
2019-01-18T00:46:16.266Z,3.17
2019-01-18T00:51:19.681Z,3.87
2019-01-18T00:56:23.109Z,3.47
2019-01-18T01:01:26.522Z,3.47
2019-01-18T01:06:29.961Z,3.10
2019-01-18T01:11:33.453Z,4.17
2019-01-18T01:16:36.868Z,2.97
2019-01-18T01:21:40.317Z,4.07
2019-01-18T01:26:43.750Z,3.43
2019-01-18T01:31:47.163Z,3.83
2019-01-18T01:36:50.620Z,4.30
2019-01-18T01:41:54.019Z,3.40
2019-01-18T01:46:57.437Z,3.03
2019-01-18T01:52:00.866Z,3.47
2019-01-18T01:57:04.385Z,3.63
2019-01-18T02:02:07.808Z,5.13
2019-01-18T02:07:11.229Z,4.37
2019-01-18T02:12:14.671Z,3.53
2019-01-18T02:17:18.118Z,4.30
2019-01-18T02:22:21.553Z,5.70
2019-01-18T02:27:24.984Z,3.83
2019-01-18T02:32:28.550Z,5.03
2019-01-18T02:37:32.004Z,4.93
2019-01-18T02:42:35.431Z,5.77
2019-01-18T02:47:38.849Z,5.50
2019-01-18T02:52:42.296Z,5.67
2019-01-18T02:57:45.909Z,4.23
2019-01-18T03:02:49.469Z,4.50
2019-01-18T03:07:53.074Z,4.27
2019-01-18T03:12:56.495Z,3.97
2019-01-18T03:17:59.921Z,4.17
2019-01-18T03:23:03.345Z,3.83
2019-01-18T03:28:06.834Z,4.00
2019-01-18T03:33:10.258Z,4.80
2019-01-18T03:38:13.673Z,5.20
2019-01-18T03:43:17.101Z,4.10
2019-01-18T03:48:22.851Z,4.30
2019-01-18T03:53:25.853Z,5.03
2019-01-18T03:58:29.275Z,4.70
2019-01-18T04:03:32.702Z,4.87
2019-01-18T04:08:36.138Z,5.33
2019-01-18T04:13:39.546Z,5.03
2019-01-18T04:18:42.983Z,4.93
2019-01-18T04:23:46.877Z,5.03
2019-01-18T04:28:50.370Z,4.53
2019-01-18T04:33:53.781Z,5.57
2019-01-18T04:38:57.207Z,5.07
2019-01-18T04:44:00.644Z,4.80
2019-01-18T04:49:04.169Z,6.27
2019-01-18T04:54:07.664Z,5.77
2019-01-18T04:59:11.086Z,5.93
2019-01-18T05:04:14.697Z,6.37
2019-01-18T05:09:18.115Z,5.73
2019-01-18T05:14:21.535Z,5.43
2019-01-18T05:19:24.950Z,6.03
2019-01-18T05:24:28.389Z,5.67
2019-01-18T05:29:31.831Z,5.63
2019-01-18T05:34:35.247Z,6.13
2019-01-18T05:39:38.684Z,6.07
2019-01-18T05:44:42.212Z,7.03
2019-01-18T05:49:45.626Z,7.30
2019-01-18T05:54:49.058Z,8.03
2019-01-18T05:59:52.476Z,7.87
2019-01-18T06:04:56.295Z,9.07
2019-01-18T06:09:59.728Z,7.67
2019-01-18T06:15:03.246Z,7.33
2019-01-18T06:20:09.727Z,7.40
2019-01-18T06:25:13.227Z,6.33
2019-01-18T06:30:25.150Z,7.43
2019-01-18T06:35:28.099Z,6.30
2019-01-18T06:40:31.676Z,11.70
2019-01-18T06:45:35.263Z,8.10
2019-01-18T06:50:38.705Z,7.30
2019-01-18T06:55:42.142Z,7.20
2019-01-18T07:00:45.565Z,6.73
2019-01-18T07:05:49.080Z,8.33
2019-01-18T07:10:52.522Z,9.57
2019-01-18T07:15:55.959Z,7.10
2019-01-18T07:20:59.393Z,7.13
2019-01-18T07:26:02.860Z,6.70
2019-01-18T07:31:06.306Z,6.77
2019-01-18T07:36:09.811Z,6.70
2019-01-18T07:41:13.335Z,6.23
2019-01-18T07:46:17.615Z,6.07
2019-01-18T07:51:21.161Z,6.47
2019-01-18T07:56:25.171Z,6.77
2019-01-18T08:01:28.591Z,6.23
2019-01-18T08:06:32.113Z,6.20
2019-01-18T08:11:35.615Z,7.30
2019-01-18T08:16:39.037Z,6.90
2019-01-18T08:21:42.538Z,7.20
2019-01-18T08:26:45.970Z,6.33
2019-01-18T08:31:49.413Z,7.13
2019-01-18T08:36:52.843Z,6.13
2019-01-18T08:41:56.276Z,7.07
2019-01-18T08:46:59.713Z,6.33
2019-01-18T08:52:03.142Z,6.20
2019-01-18T08:57:06.563Z,5.40
2019-01-18T09:02:09.984Z,6.23
2019-01-18T09:07:13.493Z,5.83
2019-01-18T09:12:16.930Z,7.03
2019-01-18T09:17:20.367Z,7.03
2019-01-18T09:22:23.777Z,5.90
2019-01-18T09:27:27.197Z,6.33
2019-01-18T09:32:30.721Z,6.03
2019-01-18T09:37:34.242Z,5.17
2019-01-18T09:42:37.669Z,5.80
2019-01-18T09:47:41.340Z,6.13
2019-01-18T09:52:45.003Z,6.53
2019-01-18T09:57:48.437Z,6.90
2019-01-18T10:02:51.927Z,6.87
2019-01-18T10:07:55.353Z,6.97
2019-01-18T10:12:59.188Z,5.80
2019-01-18T10:18:02.611Z,6.13
2019-01-18T10:23:06.405Z,6.10
2019-01-18T10:28:10.199Z,5.83
2019-01-18T10:33:13.622Z,6.53
2019-01-18T10:38:17.148Z,5.77
2019-01-18T10:43:20.817Z,6.33
2019-01-18T10:48:24.508Z,5.53
2019-01-18T10:53:28.124Z,7.00
2019-01-18T10:58:31.532Z,5.87
2019-01-18T11:03:34.962Z,7.40
2019-01-18T11:08:38.399Z,6.00
2019-01-18T11:13:41.839Z,7.03
2019-01-18T11:18:45.275Z,6.63
2019-01-18T11:23:48.704Z,5.40
2019-01-18T11:28:52.117Z,5.83
2019-01-18T11:33:55.548Z,6.57
2019-01-18T11:38:58.971Z,5.03
2019-01-18T11:44:02.532Z,4.37
2019-01-18T11:49:05.952Z,5.00
2019-01-18T11:54:09.392Z,6.33
2019-01-18T11:59:12.915Z,4.73
2019-01-18T12:04:16.321Z,5.20
2019-01-18T12:09:19.762Z,4.80
2019-01-18T12:14:23.180Z,5.50
2019-01-18T12:19:26.614Z,4.03
2019-01-18T12:24:30.041Z,4.00
2019-01-18T12:29:33.600Z,4.63
2019-01-18T12:34:38.760Z,5.30
2019-01-18T12:39:42.213Z,5.10
2019-01-18T12:44:45.646Z,4.53
2019-01-18T12:49:49.074Z,5.70
2019-01-18T12:54:52.504Z,6.53
2019-01-18T12:59:56.018Z,6.93
2019-01-18T13:04:59.443Z,4.57
2019-01-18T13:10:02.919Z,5.50
2019-01-18T13:15:21.297Z,4.63
2019-01-18T13:20:24.747Z,4.60
2019-01-18T13:25:28.258Z,4.70
2019-01-18T13:30:31.676Z,4.10
2019-01-18T13:35:35.096Z,3.70
2019-01-18T13:40:38.526Z,3.90
2019-01-18T13:45:41.940Z,4.87
2019-01-18T13:50:45.363Z,3.97
2019-01-18T13:55:48.763Z,4.03
2019-01-18T14:00:52.201Z,4.20
2019-01-18T14:05:55.624Z,4.33
2019-01-18T14:10:59.058Z,4.30
2019-01-18T14:16:02.467Z,3.80
2019-01-18T14:21:06.011Z,4.30
2019-01-18T14:26:09.482Z,4.20
2019-01-18T14:31:12.884Z,4.50
2019-01-18T14:36:16.306Z,4.47
2019-01-18T14:41:20.922Z,4.17
2019-01-18T14:46:24.432Z,4.50
2019-01-18T14:51:27.977Z,4.70
2019-01-18T14:56:31.412Z,4.50
2019-01-18T15:01:34.839Z,5.43
2019-01-18T15:06:38.248Z,5.63
2019-01-18T15:11:41.703Z,4.30
2019-01-18T15:16:45.125Z,5.17
2019-01-18T15:21:48.627Z,5.63
2019-01-18T15:26:52.048Z,6.20
2019-01-18T15:31:55.462Z,6.10
2019-01-18T15:36:59.652Z,5.93
2019-01-18T15:42:03.068Z,7.17
2019-01-18T15:47:06.500Z,6.57
2019-01-18T15:52:09.926Z,6.77
2019-01-18T15:57:13.367Z,7.60
2019-01-18T16:02:16.929Z,7.20
2019-01-18T16:07:20.401Z,7.70
2019-01-18T16:12:23.830Z,8.13
2019-01-18T16:17:27.536Z,15.17
2019-01-18T16:22:30.963Z,10.17
2019-01-18T16:27:34.393Z,12.10
2019-01-18T16:32:37.813Z,9.73
2019-01-18T16:37:41.305Z,9.23
2019-01-18T16:42:47.145Z,9.10
2019-01-18T16:47:50.582Z,8.43
2019-01-18T16:52:54.083Z,9.57
2019-01-18T16:57:57.509Z,9.03
2019-01-18T17:03:00.965Z,10.40
2019-01-18T17:08:04.743Z,9.47
2019-01-18T17:13:08.243Z,9.60
2019-01-18T17:18:12.998Z,9.20
2019-01-18T17:23:16.489Z,9.63
2019-01-18T17:28:20.014Z,9.83
2019-01-18T17:33:23.463Z,8.77
2019-01-18T17:38:50.897Z,8.43
2019-01-18T17:44:06.401Z,10.20
2019-01-18T17:49:12.882Z,8.00
2019-01-18T17:54:27.954Z,8.60
2019-01-18T17:59:58.458Z,7.90
2019-01-18T18:05:16.830Z,8.50
2019-01-18T18:10:38.175Z,7.00
2019-01-18T18:15:50.611Z,7.10
2019-01-18T18:21:11.720Z,7.97
2019-01-18T18:26:24.047Z,6.77
2019-01-18T18:31:54.524Z,7.33
2019-01-18T18:37:06.886Z,8.30
2019-01-18T18:42:19.033Z,8.33
2019-01-18T18:47:28.427Z,8.13
2019-01-18T18:52:40.697Z,10.90
2019-01-18T18:57:55.938Z,13.67
2019-01-18T19:03:08.161Z,8.90
2019-01-18T19:08:29.200Z,7.03
2019-01-18T19:13:59.814Z,6.87
2019-01-18T19:19:15.301Z,8.17
2019-01-18T19:24:36.652Z,7.30
2019-01-18T19:29:55.140Z,7.60
2019-01-18T19:35:02.606Z,7.87
2019-01-18T19:40:24.065Z,7.10
2019-01-18T19:45:42.476Z,9.07
2019-01-18T19:51:05.533Z,8.30
2019-01-18T19:56:12.042Z,12.67
2019-01-18T20:01:36.443Z,11.33
2019-01-18T20:07:06.742Z,10.97
2019-01-18T20:12:16.062Z,12.13
2019-01-18T20:17:25.322Z,13.73
2019-01-18T20:22:46.530Z,13.00
2019-01-18T20:27:55.986Z,14.40
2019-01-18T20:33:36.951Z,14.57
2019-01-18T20:38:52.387Z,13.93
2019-01-18T20:44:01.463Z,13.43
2019-01-18T20:49:16.737Z,18.40
2019-01-18T20:54:57.749Z,15.00
2019-01-18T21:00:25.229Z,14.20
2019-01-18T21:05:40.346Z,13.70
2019-01-18T21:10:49.711Z,13.27
2019-01-18T21:16:27.517Z,12.63
2019-01-18T21:21:36.943Z,13.27
2019-01-18T21:26:49.413Z,14.10
2019-01-18T21:32:04.490Z,12.77
2019-01-18T21:37:26.059Z,12.83
2019-01-18T21:42:38.571Z,13.10
2019-01-18T21:47:45.064Z,11.50
2019-01-18T21:53:12.822Z,10.50
2019-01-18T21:58:19.318Z,12.23
2019-01-18T22:03:28.325Z,11.70
2019-01-18T22:08:52.829Z,10.80
2019-01-18T22:14:26.459Z,11.43
2019-01-18T22:19:36.000Z,11.60
2019-01-18T22:24:51.211Z,10.33
2019-01-18T22:30:09.969Z,10.90
2019-01-18T22:35:19.099Z,10.57
2019-01-18T22:40:43.288Z,11.37
2019-01-18T22:45:55.798Z,11.17
2019-01-18T22:51:21.863Z,15.40
2019-01-18T22:56:34.238Z,14.00
2019-01-18T23:01:43.878Z,16.53
2019-01-18T23:07:08.239Z,14.57
2019-01-18T23:12:20.687Z,18.00
2019-01-18T23:17:35.974Z,16.37
2019-01-18T23:23:02.566Z,15.73
2019-01-18T23:28:14.781Z,16.63
2019-01-18T23:33:45.347Z,15.60
2019-01-18T23:39:18.894Z,15.70
2019-01-18T23:44:37.301Z,16.33
2019-01-18T23:50:04.675Z,16.17
2019-01-18T23:55:42.963Z,16.57
